createdAt,value
2022-11-18T00:00:09.000Z,69.30
2022-11-18T00:00:40.465Z,69.20
2022-11-18T00:01:11.944Z,69.30
2022-11-18T00:01:43.424Z,69.20
2022-11-18T00:02:14.934Z,69.20
2022-11-18T00:02:46.495Z,69.20
2022-11-18T00:03:17.987Z,69.20
2022-11-18T00:03:49.460Z,69.20
2022-11-18T00:04:20.932Z,69.20
2022-11-18T00:04:52.392Z,69.20
2022-11-18T00:05:23.863Z,69.20
2022-11-18T00:05:55.342Z,69.20
2022-11-18T00:06:26.828Z,69.20
2022-11-18T00:06:58.368Z,69.20
2022-11-18T00:07:29.961Z,69.20
2022-11-18T00:08:01.451Z,69.20
2022-11-18T00:08:32.928Z,69.20
2022-11-18T00:09:04.413Z,69.20
2022-11-18T00:09:35.884Z,69.30
2022-11-18T00:10:07.375Z,69.20
2022-11-18T00:10:38.830Z,69.40
2022-11-18T00:11:10.291Z,69.20
2022-11-18T00:11:41.801Z,69.20
2022-11-18T00:12:13.322Z,69.20
2022-11-18T00:12:44.793Z,69.20
2022-11-18T00:13:16.269Z,69.20
2022-11-18T00:13:47.729Z,69.20
2022-11-18T00:14:19.284Z,69.30
2022-11-18T00:14:50.861Z,69.20
2022-11-18T00:15:25.222Z,69.20
2022-11-18T00:16:00.495Z,69.20
2022-11-18T00:16:31.964Z,69.20
2022-11-18T00:17:03.426Z,69.20
2022-11-18T00:17:34.890Z,69.20
2022-11-18T00:18:06.346Z,69.20
2022-11-18T00:18:37.825Z,69.20
2022-11-18T00:19:09.285Z,69.30
2022-11-18T00:19:40.753Z,69.20
2022-11-18T00:20:12.244Z,69.20
2022-11-18T00:20:43.759Z,69.30
2022-11-18T00:21:15.227Z,69.30
2022-11-18T00:21:46.710Z,69.30
2022-11-18T00:22:18.174Z,69.30
2022-11-18T00:22:49.642Z,69.30
2022-11-18T00:23:21.113Z,69.20
2022-11-18T00:23:52.584Z,69.30
2022-11-18T00:24:24.064Z,69.20
2022-11-18T00:24:55.544Z,69.30
2022-11-18T00:25:27.146Z,69.20
2022-11-18T00:25:58.628Z,69.40
2022-11-18T00:26:30.079Z,69.40
2022-11-18T00:27:01.542Z,69.40
2022-11-18T00:27:33.046Z,69.40
2022-11-18T00:28:04.517Z,69.30
2022-11-18T00:28:35.991Z,69.30
2022-11-18T00:29:07.458Z,69.30
2022-11-18T00:29:38.923Z,69.20
2022-11-18T00:30:10.380Z,69.20
2022-11-18T00:30:41.886Z,69.20
2022-11-18T00:31:13.356Z,69.20
2022-11-18T00:31:44.845Z,69.20
2022-11-18T00:32:16.322Z,69.20
2022-11-18T00:32:47.778Z,69.20
2022-11-18T00:33:19.245Z,69.10
2022-11-18T00:33:50.732Z,69.10
2022-11-18T00:34:22.212Z,69.10
2022-11-18T00:34:53.679Z,69.10
2022-11-18T00:35:25.137Z,69.10
2022-11-18T00:35:56.591Z,69.10
2022-11-18T00:36:28.066Z,69.00
2022-11-18T00:36:59.531Z,69.00
2022-11-18T00:37:31.005Z,69.00
2022-11-18T00:38:02.469Z,69.10
2022-11-18T00:38:33.928Z,69.00
2022-11-18T00:39:05.405Z,69.00
2022-11-18T00:39:36.888Z,69.00
2022-11-18T00:40:08.349Z,69.00
2022-11-18T00:40:39.812Z,69.00
2022-11-18T00:41:11.304Z,69.10
2022-11-18T00:41:42.785Z,69.00
2022-11-18T00:42:14.247Z,69.00
2022-11-18T00:42:45.707Z,69.80
2022-11-18T00:43:17.180Z,69.00
2022-11-18T00:43:48.665Z,69.00
2022-11-18T00:44:20.123Z,69.10
2022-11-18T00:44:51.584Z,69.10
2022-11-18T00:45:23.042Z,69.10
2022-11-18T00:45:54.508Z,69.10
2022-11-18T00:46:25.982Z,69.10
2022-11-18T00:46:57.454Z,69.10
2022-11-18T00:47:28.926Z,69.10
2022-11-18T00:48:00.413Z,69.10
2022-11-18T00:48:31.885Z,69.10
2022-11-18T00:49:03.394Z,69.10
2022-11-18T00:49:34.856Z,69.10
2022-11-18T00:50:06.318Z,69.20
2022-11-18T00:50:37.790Z,69.10
2022-11-18T00:51:09.251Z,69.10
2022-11-18T00:51:40.720Z,69.10
2022-11-18T00:52:12.199Z,69.10
2022-11-18T00:52:43.660Z,69.10
2022-11-18T00:53:15.124Z,69.10
2022-11-18T00:53:46.611Z,69.20
2022-11-18T00:54:18.074Z,69.10
2022-11-18T00:54:49.527Z,69.10
2022-11-18T00:55:20.995Z,69.20
2022-11-18T00:55:52.458Z,69.10
2022-11-18T00:56:23.932Z,69.10
2022-11-18T00:56:55.396Z,69.10
2022-11-18T00:57:26.855Z,69.20
2022-11-18T00:57:58.315Z,69.10
2022-11-18T00:58:29.778Z,69.10
2022-11-18T00:59:01.244Z,69.10
2022-11-18T00:59:32.705Z,69.10
2022-11-18T01:00:04.187Z,69.10
2022-11-18T01:00:35.656Z,69.10
2022-11-18T01:01:07.290Z,69.20
2022-11-18T01:01:38.911Z,69.10
2022-11-18T01:02:10.462Z,69.10
2022-11-18T01:02:41.930Z,69.10
2022-11-18T01:03:13.401Z,69.00
2022-11-18T01:03:44.865Z,69.00
2022-11-18T01:04:16.323Z,69.00
2022-11-18T01:04:47.836Z,69.10
2022-11-18T01:05:19.314Z,69.00
2022-11-18T01:05:50.786Z,69.00
2022-11-18T01:06:22.258Z,69.00
2022-11-18T01:06:53.775Z,69.00
2022-11-18T01:07:25.351Z,69.00
2022-11-18T01:07:56.886Z,69.00
2022-11-18T01:08:28.372Z,69.00
2022-11-18T01:08:59.843Z,69.00
2022-11-18T01:09:31.320Z,69.00
2022-11-18T01:10:02.817Z,69.10
2022-11-18T01:10:34.282Z,69.00
2022-11-18T01:11:05.752Z,69.00
2022-11-18T01:11:37.226Z,69.00
2022-11-18T01:12:08.715Z,69.00
2022-11-18T01:12:40.172Z,68.90
2022-11-18T01:13:11.652Z,68.90
2022-11-18T01:13:43.130Z,68.90
2022-11-18T01:14:14.607Z,69.00
2022-11-18T01:14:46.157Z,68.90
2022-11-18T01:15:17.630Z,68.90
2022-11-18T01:15:49.095Z,69.00
2022-11-18T01:16:20.575Z,68.80
2022-11-18T01:16:52.054Z,68.80
2022-11-18T01:17:23.523Z,68.90
2022-11-18T01:17:55.025Z,68.80
2022-11-18T01:18:26.532Z,68.80
2022-11-18T01:18:58.004Z,68.80
2022-11-18T01:19:29.484Z,68.90
2022-11-18T01:20:00.944Z,68.80
2022-11-18T01:20:32.431Z,68.80
2022-11-18T01:21:03.930Z,69.00
2022-11-18T01:21:35.392Z,68.90
2022-11-18T01:22:06.868Z,68.90
2022-11-18T01:22:38.338Z,68.90
2022-11-18T01:23:09.804Z,68.90
2022-11-18T01:23:41.271Z,69.00
2022-11-18T01:24:12.736Z,68.90
2022-11-18T01:24:44.194Z,68.90
2022-11-18T01:25:15.701Z,69.00
2022-11-18T01:25:47.155Z,68.90
2022-11-18T01:26:18.620Z,69.00
2022-11-18T01:26:50.107Z,69.00
2022-11-18T01:27:21.572Z,69.00
2022-11-18T01:27:53.026Z,69.00
2022-11-18T01:28:24.511Z,69.00
2022-11-18T01:28:55.967Z,69.00
2022-11-18T01:29:27.430Z,69.00
2022-11-18T01:29:58.891Z,69.00
2022-11-18T01:30:30.371Z,69.00
2022-11-18T01:31:01.849Z,68.90
2022-11-18T01:31:33.317Z,68.90
2022-11-18T01:32:56.244Z,69.00
2022-11-18T01:33:27.716Z,69.00
2022-11-18T01:33:59.181Z,69.00
2022-11-18T01:34:30.644Z,69.00
2022-11-18T01:35:02.141Z,69.00
2022-11-18T01:35:33.594Z,69.00
2022-11-18T01:36:05.077Z,69.00
2022-11-18T01:36:36.549Z,69.00
2022-11-18T01:37:08.004Z,69.00
2022-11-18T01:37:39.484Z,69.00
2022-11-18T01:38:10.943Z,69.00
2022-11-18T01:38:42.408Z,69.00
2022-11-18T01:39:13.870Z,69.00
2022-11-18T01:39:45.327Z,69.00
2022-11-18T01:40:16.796Z,69.00
2022-11-18T01:40:48.259Z,68.80
2022-11-18T01:41:19.772Z,68.80
2022-11-18T01:41:51.236Z,68.90
2022-11-18T01:42:22.696Z,68.90
2022-11-18T01:42:54.169Z,69.70
2022-11-18T01:43:25.676Z,69.00
2022-11-18T01:43:57.142Z,68.80
2022-11-18T01:44:28.603Z,69.00
2022-11-18T01:45:00.066Z,68.90
2022-11-18T01:45:31.556Z,68.90
2022-11-18T01:46:03.067Z,69.00
2022-11-18T01:46:34.589Z,68.90
2022-11-18T01:47:06.095Z,69.00
2022-11-18T01:47:37.559Z,68.90
2022-11-18T01:48:09.023Z,68.90
2022-11-18T01:48:40.487Z,68.80
2022-11-18T01:49:11.984Z,68.80
2022-11-18T01:49:43.442Z,68.80
2022-11-18T01:50:14.898Z,68.80
2022-11-18T01:50:46.350Z,68.70
2022-11-18T01:51:17.823Z,68.70
2022-11-18T01:51:49.297Z,68.70
2022-11-18T01:52:20.755Z,68.70
2022-11-18T01:52:52.263Z,68.70
2022-11-18T01:53:23.745Z,68.70
2022-11-18T01:53:55.204Z,68.70
2022-11-18T01:54:26.684Z,68.70
2022-11-18T01:54:58.139Z,68.70
2022-11-18T01:55:29.615Z,68.70
2022-11-18T01:56:01.100Z,68.70
2022-11-18T01:56:32.574Z,68.70
2022-11-18T01:57:04.045Z,68.80
2022-11-18T01:57:35.513Z,68.80
2022-11-18T01:58:07.003Z,68.80
2022-11-18T01:58:38.468Z,68.80
2022-11-18T01:59:09.945Z,68.80
2022-11-18T01:59:41.408Z,68.80
2022-11-18T02:00:12.870Z,68.80
2022-11-18T02:00:44.348Z,68.80
2022-11-18T02:01:15.871Z,68.80
2022-11-18T02:01:47.442Z,68.80
2022-11-18T02:02:18.946Z,68.80
2022-11-18T02:02:50.411Z,68.80
2022-11-18T02:03:21.892Z,68.80
2022-11-18T02:03:53.352Z,68.80
2022-11-18T02:04:24.811Z,68.80
2022-11-18T02:04:56.283Z,68.90
2022-11-18T02:05:27.766Z,68.80
2022-11-18T02:05:59.229Z,68.80
2022-11-18T02:06:30.693Z,68.80
2022-11-18T02:07:02.193Z,68.80
2022-11-18T02:07:33.726Z,68.80
2022-11-18T02:08:05.229Z,68.80
2022-11-18T02:08:36.701Z,68.80
2022-11-18T02:09:08.185Z,68.70
2022-11-18T02:09:39.647Z,68.70
2022-11-18T02:10:11.108Z,68.80
2022-11-18T02:10:42.569Z,68.70
2022-11-18T02:11:14.068Z,68.80
2022-11-18T02:11:45.601Z,68.70
2022-11-18T02:12:17.198Z,68.70
2022-11-18T02:12:48.675Z,68.70
2022-11-18T02:13:20.142Z,68.70
2022-11-18T02:13:51.603Z,68.70
2022-11-18T02:14:23.119Z,68.80
2022-11-18T02:14:54.594Z,68.70
2022-11-18T02:15:26.080Z,68.80
2022-11-18T02:15:57.552Z,68.70
2022-11-18T02:16:29.038Z,68.70
2022-11-18T02:17:00.511Z,68.80
2022-11-18T02:17:32.017Z,68.80
2022-11-18T02:18:03.538Z,68.80
2022-11-18T02:18:35.018Z,68.70
2022-11-18T02:19:06.478Z,69.50
2022-11-18T02:19:37.930Z,68.80
2022-11-18T02:20:09.397Z,68.70
2022-11-18T02:20:40.891Z,68.70
2022-11-18T02:21:12.401Z,68.70
2022-11-18T02:21:43.876Z,68.70
2022-11-18T02:22:15.336Z,68.70
2022-11-18T02:22:46.794Z,68.70
2022-11-18T02:23:18.264Z,68.70
2022-11-18T02:23:49.775Z,68.70
2022-11-18T02:24:21.251Z,68.80
2022-11-18T02:24:52.710Z,68.70
2022-11-18T02:25:24.168Z,68.70
2022-11-18T02:25:55.640Z,68.70
2022-11-18T02:26:27.117Z,68.70
2022-11-18T02:26:58.629Z,68.60
2022-11-18T02:27:30.130Z,68.60
2022-11-18T02:28:01.588Z,68.70
2022-11-18T02:28:33.048Z,68.60
2022-11-18T02:29:04.518Z,68.60
2022-11-18T02:29:35.975Z,68.70
2022-11-18T02:30:07.454Z,68.60
2022-11-18T02:30:38.958Z,68.60
2022-11-18T02:31:10.433Z,68.70
2022-11-18T02:31:41.901Z,68.70
2022-11-18T02:32:13.360Z,68.70
2022-11-18T02:32:44.837Z,68.70
2022-11-18T02:33:16.299Z,68.70
2022-11-18T02:33:47.755Z,68.70
2022-11-18T02:34:19.234Z,68.70
2022-11-18T02:34:50.698Z,68.70
2022-11-18T02:35:22.162Z,68.60
2022-11-18T02:35:53.628Z,68.80
2022-11-18T02:36:25.102Z,68.70
2022-11-18T02:36:56.594Z,68.70
2022-11-18T02:37:28.061Z,68.80
2022-11-18T02:37:59.523Z,68.70
2022-11-18T02:38:30.989Z,68.70
2022-11-18T02:39:02.452Z,68.70
2022-11-18T02:39:33.944Z,68.70
2022-11-18T02:40:05.408Z,68.70
2022-11-18T02:40:36.867Z,68.80
2022-11-18T02:41:08.336Z,68.70
2022-11-18T02:41:39.794Z,68.70
2022-11-18T02:42:11.315Z,68.70
2022-11-18T02:42:42.832Z,68.80
2022-11-18T02:43:14.300Z,68.70
2022-11-18T02:43:45.758Z,68.70
2022-11-18T02:46:33.817Z,68.80
2022-11-18T02:47:05.292Z,68.80
2022-11-18T02:47:36.760Z,68.80
2022-11-18T02:48:08.232Z,68.80
2022-11-18T02:48:39.715Z,68.80
2022-11-18T02:49:11.173Z,68.70
2022-11-18T02:49:42.634Z,68.80
2022-11-18T02:50:14.086Z,68.80
2022-11-18T02:50:45.549Z,68.70
2022-11-18T02:51:17.007Z,68.70
2022-11-18T02:51:48.472Z,68.70
2022-11-18T02:52:19.963Z,68.70
2022-11-18T02:52:51.427Z,68.70
2022-11-18T02:53:22.908Z,68.70
2022-11-18T02:53:54.391Z,68.70
2022-11-18T02:54:25.856Z,68.60
2022-11-18T02:54:57.310Z,68.70
2022-11-18T02:55:28.772Z,68.70
2022-11-18T02:56:00.235Z,68.70
2022-11-18T02:56:31.714Z,68.70
2022-11-18T02:57:03.184Z,68.70
2022-11-18T02:57:34.692Z,68.70
2022-11-18T02:58:06.148Z,68.70
2022-11-18T02:58:37.608Z,68.70
2022-11-18T02:59:09.075Z,68.60
2022-11-18T02:59:40.526Z,68.60
2022-11-18T03:00:11.981Z,68.70
2022-11-18T03:00:43.441Z,68.70
2022-11-18T03:01:14.982Z,68.60
2022-11-18T03:01:46.499Z,68.60
2022-11-18T03:02:17.960Z,68.70
2022-11-18T03:02:49.433Z,68.60
2022-11-18T03:03:20.909Z,68.60
2022-11-18T03:03:52.368Z,68.60
2022-11-18T03:04:23.838Z,68.50
2022-11-18T03:04:55.313Z,69.40
2022-11-18T03:05:26.767Z,68.50
2022-11-18T03:05:58.233Z,68.60
2022-11-18T03:06:29.707Z,68.50
2022-11-18T03:07:01.215Z,68.50
2022-11-18T03:07:32.764Z,69.30
2022-11-18T03:08:04.337Z,68.50
2022-11-18T03:08:35.815Z,68.50
2022-11-18T03:09:07.285Z,68.50
2022-11-18T03:09:38.791Z,68.50
2022-11-18T03:10:10.260Z,68.50
2022-11-18T03:10:41.719Z,68.50
2022-11-18T03:11:13.179Z,68.50
2022-11-18T03:11:44.642Z,68.50
2022-11-18T03:12:16.106Z,68.50
2022-11-18T03:12:47.566Z,69.40
2022-11-18T03:13:19.021Z,68.50
2022-11-18T03:13:50.565Z,68.50
2022-11-18T03:14:22.035Z,68.60
2022-11-18T03:14:53.514Z,68.50
2022-11-18T03:15:24.976Z,68.50
2022-11-18T03:15:56.455Z,68.50
2022-11-18T03:16:27.937Z,68.50
2022-11-18T03:16:59.423Z,68.50
2022-11-18T03:17:30.888Z,68.50
2022-11-18T03:18:02.347Z,68.50
2022-11-18T03:18:33.815Z,68.50
2022-11-18T03:19:05.265Z,68.50
2022-11-18T03:19:36.720Z,68.50
2022-11-18T03:20:08.178Z,68.50
2022-11-18T03:20:39.634Z,68.50
2022-11-18T03:21:11.086Z,68.50
2022-11-18T03:21:42.552Z,68.70
2022-11-18T03:22:14.019Z,68.60
2022-11-18T03:22:45.496Z,68.50
2022-11-18T03:23:16.974Z,68.50
2022-11-18T03:23:48.431Z,68.60
2022-11-18T03:24:19.890Z,68.50
2022-11-18T03:24:51.355Z,68.50
2022-11-18T03:25:22.878Z,68.50
2022-11-18T03:25:54.353Z,68.60
2022-11-18T03:26:25.821Z,68.50
2022-11-18T03:26:57.296Z,68.50
2022-11-18T03:27:28.766Z,68.50
2022-11-18T03:28:00.221Z,68.50
2022-11-18T03:28:31.763Z,68.40
2022-11-18T03:29:03.230Z,68.50
2022-11-18T03:29:34.719Z,68.50
2022-11-18T03:30:06.173Z,68.50
2022-11-18T03:30:37.633Z,68.40
2022-11-18T03:31:09.123Z,68.50
2022-11-18T03:31:40.598Z,68.50
2022-11-18T03:32:12.069Z,68.50
2022-11-18T03:32:43.538Z,68.40
2022-11-18T03:33:15.007Z,68.50
2022-11-18T03:33:46.468Z,68.50
2022-11-18T03:34:17.963Z,68.50
2022-11-18T03:34:49.422Z,68.50
2022-11-18T03:35:20.885Z,68.50
2022-11-18T03:35:52.338Z,68.50
2022-11-18T03:36:23.798Z,68.50
2022-11-18T03:36:58.366Z,68.60
2022-11-18T03:37:32.023Z,68.40
2022-11-18T03:38:03.482Z,68.50
2022-11-18T03:38:34.977Z,68.50
2022-11-18T03:39:06.439Z,68.40
2022-11-18T03:39:37.911Z,68.40
2022-11-18T03:40:09.502Z,68.50
2022-11-18T03:40:40.959Z,68.40
2022-11-18T03:41:12.450Z,68.40
2022-11-18T03:41:43.934Z,68.40
2022-11-18T03:42:15.403Z,68.40
2022-11-18T03:42:46.873Z,68.40
2022-11-18T03:43:18.350Z,68.40
2022-11-18T03:43:49.815Z,68.40
2022-11-18T03:44:21.291Z,68.40
2022-11-18T03:44:52.886Z,68.40
2022-11-18T03:45:24.359Z,68.40
2022-11-18T03:45:55.821Z,68.40
2022-11-18T03:46:27.287Z,68.40
2022-11-18T03:46:58.743Z,68.40
2022-11-18T03:47:30.202Z,68.40
2022-11-18T03:48:01.661Z,68.50
2022-11-18T03:48:33.122Z,68.50
2022-11-18T03:49:04.574Z,68.50
2022-11-18T03:49:36.072Z,68.40
2022-11-18T03:50:07.562Z,68.40
2022-11-18T03:50:39.034Z,68.40
2022-11-18T03:51:10.490Z,68.50
2022-11-18T03:51:41.942Z,68.50
2022-11-18T03:52:13.407Z,68.50
2022-11-18T03:52:44.862Z,68.50
2022-11-18T03:53:16.324Z,68.50
2022-11-18T03:53:47.792Z,68.50
2022-11-18T03:54:19.289Z,68.50
2022-11-18T03:54:50.759Z,68.50
2022-11-18T03:55:22.231Z,68.50
2022-11-18T03:55:53.698Z,68.50
2022-11-18T03:56:25.171Z,68.50
2022-11-18T03:56:56.629Z,68.50
2022-11-18T03:57:28.102Z,68.50
2022-11-18T03:57:59.576Z,68.50
2022-11-18T03:58:31.040Z,68.50
2022-11-18T03:59:02.566Z,68.50
2022-11-18T03:59:34.033Z,68.50
2022-11-18T04:00:05.526Z,68.50
2022-11-18T04:00:36.989Z,68.50
2022-11-18T04:01:08.442Z,68.40
2022-11-18T04:01:39.953Z,68.40
2022-11-18T04:02:11.541Z,68.40
2022-11-18T04:02:43.082Z,68.40
2022-11-18T04:03:14.557Z,68.40
2022-11-18T04:03:46.010Z,68.50
2022-11-18T04:04:17.473Z,68.50
2022-11-18T04:04:48.934Z,68.50
2022-11-18T04:05:20.458Z,68.40
2022-11-18T04:05:51.918Z,68.40
2022-11-18T04:06:23.388Z,68.50
2022-11-18T04:06:54.925Z,68.50
2022-11-18T04:07:26.528Z,68.40
2022-11-18T04:07:58.040Z,68.50
2022-11-18T04:08:29.582Z,68.40
2022-11-18T04:09:01.091Z,68.40
2022-11-18T04:09:32.549Z,68.40
2022-11-18T04:10:04.021Z,68.40
2022-11-18T04:10:35.510Z,68.40
2022-11-18T04:11:06.968Z,68.50
2022-11-18T04:11:38.459Z,68.40
2022-11-18T04:12:09.947Z,68.40
2022-11-18T04:12:41.452Z,68.50
2022-11-18T04:13:12.924Z,68.50
2022-11-18T04:13:44.389Z,68.40
2022-11-18T04:14:15.852Z,68.40
2022-11-18T04:14:47.306Z,68.40
2022-11-18T04:15:18.881Z,68.40
2022-11-18T04:15:50.344Z,68.40
2022-11-18T04:16:21.809Z,68.30
2022-11-18T04:16:53.276Z,68.40
2022-11-18T04:17:24.743Z,68.30
2022-11-18T04:17:56.264Z,68.30
2022-11-18T04:18:27.758Z,68.20
2022-11-18T04:19:04.531Z,68.20
2022-11-18T04:19:37.566Z,68.20
2022-11-18T04:20:09.023Z,68.30
2022-11-18T04:20:40.492Z,68.20
2022-11-18T04:21:11.969Z,68.20
2022-11-18T04:21:43.453Z,68.20
2022-11-18T04:22:14.911Z,68.20
2022-11-18T04:22:46.381Z,68.30
2022-11-18T04:23:17.851Z,68.30
2022-11-18T04:23:49.321Z,68.30
2022-11-18T04:24:20.830Z,68.40
2022-11-18T04:24:52.311Z,68.30
2022-11-18T04:25:23.786Z,69.10
2022-11-18T04:25:55.243Z,68.30
2022-11-18T04:26:26.721Z,68.30
2022-11-18T04:26:58.184Z,68.40
2022-11-18T04:27:29.659Z,68.30
2022-11-18T04:28:01.114Z,68.30
2022-11-18T04:28:32.582Z,68.30
2022-11-18T04:29:04.051Z,68.20
2022-11-18T04:29:35.516Z,68.20
2022-11-18T04:30:06.971Z,68.40
2022-11-18T04:30:38.426Z,68.30
2022-11-18T04:31:09.885Z,68.30
2022-11-18T04:31:41.372Z,68.30
2022-11-18T04:32:12.831Z,68.30
2022-11-18T04:32:44.292Z,68.30
2022-11-18T04:33:15.753Z,68.30
2022-11-18T04:33:47.207Z,68.30
2022-11-18T04:34:18.674Z,68.30
2022-11-18T04:34:50.147Z,68.40
2022-11-18T04:35:21.609Z,68.30
2022-11-18T04:35:53.069Z,68.40
2022-11-18T04:36:24.553Z,68.40
2022-11-18T04:36:56.024Z,68.30
2022-11-18T04:37:27.481Z,68.30
2022-11-18T04:37:58.961Z,68.40
2022-11-18T04:38:30.439Z,68.30
2022-11-18T04:39:01.900Z,68.30
2022-11-18T04:39:33.372Z,68.40
2022-11-18T04:40:04.901Z,68.40
2022-11-18T04:40:36.366Z,68.30
2022-11-18T04:41:07.824Z,68.30
2022-11-18T04:41:39.278Z,68.30
2022-11-18T04:42:10.734Z,68.40
2022-11-18T04:42:42.202Z,68.30
2022-11-18T04:43:13.718Z,68.30
2022-11-18T04:43:45.170Z,68.30
2022-11-18T04:44:16.628Z,68.30
2022-11-18T04:44:48.088Z,68.30
2022-11-18T04:45:19.565Z,68.30
2022-11-18T04:45:51.064Z,68.40
2022-11-18T04:46:22.527Z,68.40
2022-11-18T04:46:53.988Z,68.40
2022-11-18T04:47:25.447Z,68.40
2022-11-18T04:48:03.070Z,68.40
2022-11-18T04:48:35.122Z,68.40
2022-11-18T04:49:06.583Z,68.40
2022-11-18T04:49:38.045Z,68.40
2022-11-18T04:50:09.526Z,68.30
2022-11-18T04:50:41.003Z,68.30
2022-11-18T04:51:12.458Z,68.40
2022-11-18T04:51:43.916Z,68.20
2022-11-18T04:52:15.378Z,68.20
2022-11-18T04:52:46.860Z,68.20
2022-11-18T04:53:18.325Z,68.30
2022-11-18T04:53:49.780Z,68.20
2022-11-18T04:54:21.243Z,68.20
2022-11-18T04:54:52.694Z,68.20
2022-11-18T04:55:24.191Z,68.20
2022-11-18T04:55:55.656Z,68.20
2022-11-18T04:56:27.123Z,68.20
2022-11-18T04:56:58.600Z,68.20
2022-11-18T04:57:30.092Z,68.20
2022-11-18T04:58:01.559Z,68.20
2022-11-18T04:58:33.062Z,68.20
2022-11-18T04:59:04.580Z,68.20
2022-11-18T04:59:36.038Z,68.20
2022-11-18T05:00:07.494Z,68.30
2022-11-18T05:00:38.951Z,68.20
2022-11-18T05:01:10.455Z,68.30
2022-11-18T05:01:42.004Z,68.30
2022-11-18T05:02:13.527Z,68.30
2022-11-18T05:02:45.002Z,68.30
2022-11-18T05:03:16.492Z,68.30
2022-11-18T05:03:50.768Z,68.40
2022-11-18T05:04:22.436Z,68.40
2022-11-18T05:04:53.887Z,68.40
2022-11-18T05:05:25.338Z,68.40
2022-11-18T05:05:56.794Z,68.40
2022-11-18T05:06:28.278Z,68.40
2022-11-18T05:06:59.848Z,68.40
2022-11-18T05:07:31.412Z,68.50
2022-11-18T05:08:02.937Z,68.50
2022-11-18T05:08:34.398Z,68.40
2022-11-18T05:09:05.859Z,68.30
2022-11-18T05:09:37.327Z,68.30
2022-11-18T05:10:08.788Z,68.30
2022-11-18T05:10:40.269Z,68.30
2022-11-18T05:11:11.747Z,68.30
2022-11-18T05:11:43.209Z,68.40
2022-11-18T05:12:14.665Z,68.30
2022-11-18T05:12:46.114Z,68.30
2022-11-18T05:13:17.604Z,68.30
2022-11-18T05:13:49.072Z,68.40
2022-11-18T05:14:20.550Z,68.30
2022-11-18T05:14:52.046Z,68.30
2022-11-18T05:15:23.512Z,68.20
2022-11-18T05:15:54.983Z,68.20
2022-11-18T05:16:26.460Z,68.40
2022-11-18T05:16:57.917Z,68.20
2022-11-18T05:17:29.385Z,68.20
2022-11-18T05:18:00.840Z,68.20
2022-11-18T05:18:32.336Z,68.20
2022-11-18T05:19:03.821Z,68.20
2022-11-18T05:19:35.288Z,68.30
2022-11-18T05:20:06.752Z,68.20
2022-11-18T05:20:41.536Z,68.20
2022-11-18T05:21:13.358Z,68.20
2022-11-18T05:21:44.840Z,68.30
2022-11-18T05:22:16.303Z,68.20
2022-11-18T05:22:47.788Z,68.20
2022-11-18T05:23:19.240Z,68.20
2022-11-18T05:23:50.717Z,68.30
2022-11-18T05:24:22.174Z,68.30
2022-11-18T05:24:53.733Z,68.40
2022-11-18T05:25:25.284Z,68.20
2022-11-18T05:26:02.208Z,68.20
2022-11-18T05:26:33.990Z,68.20
2022-11-18T05:27:05.496Z,68.20
2022-11-18T05:27:36.954Z,68.20
2022-11-18T05:28:08.432Z,68.20
2022-11-18T05:28:39.907Z,68.20
2022-11-18T05:29:11.367Z,68.20
2022-11-18T05:29:42.844Z,68.20
2022-11-18T05:30:14.342Z,69.00
2022-11-18T05:30:45.812Z,68.10
2022-11-18T05:31:17.270Z,68.10
2022-11-18T05:31:48.733Z,68.10
2022-11-18T05:32:20.200Z,68.20
2022-11-18T05:32:51.691Z,68.10
2022-11-18T05:33:23.183Z,68.10
2022-11-18T05:33:54.646Z,68.20
2022-11-18T05:34:26.119Z,68.10
2022-11-18T05:34:57.579Z,68.10
2022-11-18T05:35:29.078Z,68.10
2022-11-18T05:36:00.550Z,68.10
2022-11-18T05:36:32.094Z,68.20
2022-11-18T05:37:03.563Z,68.10
2022-11-18T05:37:35.039Z,68.10
2022-11-18T05:38:06.496Z,68.10
2022-11-18T05:38:37.972Z,68.20
2022-11-18T05:39:09.488Z,68.10
2022-11-18T05:39:40.965Z,68.10
2022-11-18T05:40:12.454Z,68.10
2022-11-18T05:40:43.913Z,68.10
2022-11-18T05:41:15.408Z,68.10
2022-11-18T05:41:46.878Z,68.10
2022-11-18T05:42:18.370Z,68.20
2022-11-18T05:42:49.884Z,68.10
2022-11-18T05:43:21.387Z,68.20
2022-11-18T05:43:52.849Z,68.20
2022-11-18T05:44:24.313Z,68.10
2022-11-18T05:44:58.433Z,68.10
2022-11-18T05:45:30.454Z,68.10
2022-11-18T05:46:01.941Z,68.10
2022-11-18T05:46:33.480Z,68.10
2022-11-18T05:47:04.992Z,68.10
2022-11-18T05:47:36.489Z,68.10
2022-11-18T05:48:07.941Z,68.10
2022-11-18T05:48:39.395Z,68.10
2022-11-18T05:49:10.878Z,68.10
2022-11-18T05:49:42.360Z,68.10
2022-11-18T05:50:17.273Z,68.10
2022-11-18T05:50:51.510Z,68.10
2022-11-18T05:51:22.973Z,68.10
2022-11-18T05:51:54.488Z,68.20
2022-11-18T05:52:25.961Z,68.10
2022-11-18T05:52:57.431Z,68.10
2022-11-18T05:53:28.950Z,68.10
2022-11-18T05:54:00.432Z,68.10
2022-11-18T05:54:31.920Z,68.10
2022-11-18T05:55:03.461Z,68.20
2022-11-18T05:55:34.956Z,68.10
2022-11-18T05:56:06.674Z,68.10
2022-11-18T05:56:38.300Z,68.10
2022-11-18T05:57:09.818Z,68.20
2022-11-18T05:57:41.280Z,68.20
2022-11-18T05:58:12.756Z,68.20
2022-11-18T05:58:44.220Z,68.10
2022-11-18T05:59:16.224Z,68.20
2022-11-18T05:59:48.086Z,68.10
2022-11-18T06:00:19.574Z,68.10
2022-11-18T06:00:51.064Z,68.20
2022-11-18T06:01:22.536Z,68.10
2022-11-18T06:01:54.007Z,68.20
2022-11-18T06:02:25.540Z,68.20
2022-11-18T06:02:57.125Z,68.10
2022-11-18T06:03:31.000Z,68.20
2022-11-18T06:04:02.787Z,68.10
2022-11-18T06:04:34.284Z,68.10
2022-11-18T06:05:05.769Z,68.10
2022-11-18T06:05:37.389Z,68.10
2022-11-18T06:06:08.863Z,68.00
2022-11-18T06:06:40.459Z,68.00
2022-11-18T06:07:12.025Z,68.10
2022-11-18T06:07:43.753Z,68.00
2022-11-18T06:08:15.293Z,68.00
2022-11-18T06:08:46.909Z,68.00
2022-11-18T06:09:18.539Z,68.00
2022-11-18T06:09:50.190Z,68.80
2022-11-18T06:10:21.683Z,68.00
2022-11-18T06:10:53.163Z,68.00
2022-11-18T06:11:24.630Z,68.00
2022-11-18T06:11:56.123Z,68.00
2022-11-18T06:12:27.594Z,68.00
2022-11-18T06:12:59.071Z,68.80
2022-11-18T06:13:30.543Z,68.00
2022-11-18T06:14:02.011Z,68.10
2022-11-18T06:14:33.505Z,68.10
2022-11-18T06:15:05.294Z,68.10
2022-11-18T06:15:36.792Z,68.10
2022-11-18T06:16:08.260Z,68.10
2022-11-18T06:16:41.157Z,68.10
2022-11-18T06:17:12.780Z,68.10
2022-11-18T06:17:44.277Z,68.10
2022-11-18T06:18:15.752Z,68.10
2022-11-18T06:18:47.238Z,68.00
2022-11-18T06:19:19.225Z,68.00
2022-11-18T06:19:50.831Z,68.00
2022-11-18T06:20:22.297Z,68.00
2022-11-18T06:20:53.778Z,68.00
2022-11-18T06:21:25.236Z,68.00
2022-11-18T06:21:56.770Z,68.00
2022-11-18T06:22:28.341Z,68.00
2022-11-18T06:22:59.817Z,68.10
2022-11-18T06:23:31.300Z,68.00
2022-11-18T06:24:02.767Z,68.10
2022-11-18T06:24:34.278Z,68.00
2022-11-18T06:25:05.732Z,68.00
2022-11-18T06:25:37.253Z,68.00
2022-11-18T06:26:08.761Z,68.00
2022-11-18T06:26:40.261Z,68.00
2022-11-18T06:27:11.730Z,68.00
2022-11-18T06:27:43.185Z,68.10
2022-11-18T06:28:14.653Z,68.00
2022-11-18T06:28:46.131Z,68.00
2022-11-18T06:29:20.564Z,68.00
2022-11-18T06:29:55.959Z,68.10
2022-11-18T06:30:27.432Z,68.00
2022-11-18T06:30:58.970Z,68.30
2022-11-18T06:31:30.500Z,68.00
2022-11-18T06:32:01.961Z,68.00
2022-11-18T06:32:33.555Z,68.00
2022-11-18T06:33:05.485Z,68.00
2022-11-18T06:33:37.036Z,68.10
2022-11-18T06:34:08.532Z,68.10
2022-11-18T06:34:42.027Z,68.20
2022-11-18T06:35:13.688Z,68.10
2022-11-18T06:35:45.146Z,68.00
2022-11-18T06:36:16.613Z,68.00
2022-11-18T06:36:48.080Z,68.10
2022-11-18T06:37:19.582Z,68.80
2022-11-18T06:37:51.043Z,68.00
2022-11-18T06:38:22.503Z,68.10
2022-11-18T06:38:53.987Z,68.00
2022-11-18T06:39:25.574Z,68.10
2022-11-18T06:39:57.030Z,68.10
2022-11-18T06:40:34.249Z,68.00
2022-11-18T06:41:06.275Z,68.00
2022-11-18T06:41:37.752Z,68.00
2022-11-18T06:42:09.207Z,68.00
2022-11-18T06:42:40.701Z,68.00
2022-11-18T06:43:12.218Z,67.90
2022-11-18T06:43:43.713Z,67.80
2022-11-18T06:44:15.184Z,67.80
2022-11-18T06:44:46.815Z,67.80
2022-11-18T06:45:18.374Z,67.80
2022-11-18T06:45:49.881Z,67.80
2022-11-18T06:46:21.358Z,67.80
2022-11-18T06:46:52.822Z,67.80
2022-11-18T06:47:24.317Z,67.80
2022-11-18T06:47:55.783Z,67.80
2022-11-18T06:48:27.251Z,67.80
2022-11-18T06:48:58.757Z,67.90
2022-11-18T06:49:30.291Z,67.80